createdAt,value
2023-02-09T00:02:48.795Z,36.87
2023-02-09T00:07:50.982Z,36.74
2023-02-09T00:13:11.021Z,36.91
2023-02-09T00:18:12.854Z,37.09
2023-02-09T00:23:14.879Z,37.12
2023-02-09T00:28:17.103Z,37.06
2023-02-09T00:33:19.275Z,36.91
2023-02-09T00:38:21.291Z,36.95
2023-02-09T00:43:23.167Z,36.84
2023-02-09T00:48:25.344Z,36.92
2023-02-09T00:53:27.759Z,37.09
2023-02-09T00:58:29.739Z,37.04
2023-02-09T01:03:31.789Z,37.19
2023-02-09T01:08:33.814Z,37.18
2023-02-09T01:13:35.822Z,37.24
2023-02-09T01:18:38.253Z,37.08
2023-02-09T01:23:40.404Z,36.94
2023-02-09T01:28:42.960Z,36.85
2023-02-09T01:33:44.687Z,36.82
2023-02-09T01:38:46.550Z,37.23
2023-02-09T01:43:55.827Z,37.09
2023-02-09T01:49:21.778Z,37.25
2023-02-09T01:54:45.594Z,36.84
2023-02-09T01:59:54.129Z,37.28
2023-02-09T02:04:56.285Z,37.13
2023-02-09T02:09:58.918Z,37.15
2023-02-09T02:15:00.845Z,37.11
2023-02-09T02:20:35.576Z,37.06
2023-02-09T02:26:06.171Z,37.51
2023-02-09T02:31:33.036Z,37.26
2023-02-09T02:36:43.711Z,37.05
2023-02-09T02:42:13.547Z,36.95
2023-02-09T02:47:20.290Z,37.08
2023-02-09T02:52:22.149Z,37.18
2023-02-09T02:57:29.004Z,36.95
2023-02-09T03:02:35.573Z,36.87
2023-02-09T03:07:37.811Z,36.92
2023-02-09T03:12:55.317Z,36.92
2023-02-09T03:18:21.784Z,37.07
2023-02-09T03:23:33.286Z,37.08
2023-02-09T03:28:38.762Z,37.42
2023-02-09T03:33:41.482Z,37.33
2023-02-09T03:38:43.462Z,37.06
2023-02-09T03:44:03.938Z,37.35
2023-02-09T03:49:05.988Z,37.17
2023-02-09T03:54:08.182Z,37.22
2023-02-09T03:59:10.135Z,37.21
2023-02-09T04:04:11.963Z,37.41
2023-02-09T04:09:14.736Z,37.14
2023-02-09T04:14:16.902Z,37.19
2023-02-09T04:19:18.829Z,37.50
2023-02-09T04:24:22.065Z,37.09
2023-02-09T04:29:24.462Z,37.22
2023-02-09T04:34:26.479Z,37.08
2023-02-09T04:39:28.312Z,37.13
2023-02-09T04:44:30.267Z,37.11
2023-02-09T04:49:32.227Z,37.16
2023-02-09T04:54:34.278Z,37.11
2023-02-09T04:59:39.392Z,37.28
2023-02-09T05:04:41.241Z,37.06
2023-02-09T05:09:43.423Z,37.28
2023-02-09T05:14:45.196Z,37.38
2023-02-09T05:19:50.138Z,37.22
2023-02-09T05:24:52.075Z,37.19
2023-02-09T05:29:53.941Z,37.31
2023-02-09T05:34:55.994Z,37.22
2023-02-09T05:39:58.099Z,36.86
2023-02-09T05:45:00.100Z,37.13
2023-02-09T05:50:02.336Z,37.12
2023-02-09T05:55:04.534Z,37.08
2023-02-09T06:00:07.043Z,37.21
2023-02-09T06:05:09.056Z,37.08
2023-02-09T06:10:11.159Z,37.13
2023-02-09T06:15:13.255Z,36.96
2023-02-09T06:20:15.090Z,37.03
2023-02-09T06:25:17.327Z,37.04
2023-02-09T06:30:19.380Z,36.98
2023-02-09T06:35:21.497Z,37.21
2023-02-09T06:40:23.360Z,37.11
2023-02-09T06:45:25.383Z,37.14
2023-02-09T06:50:27.656Z,37.06
2023-02-09T06:55:29.557Z,36.99
2023-02-09T07:00:32.152Z,36.91
2023-02-09T07:05:34.364Z,37.12
2023-02-09T07:10:36.207Z,37.05
2023-02-09T07:15:38.285Z,36.97
2023-02-09T07:20:40.162Z,36.85
2023-02-09T07:25:42.168Z,37.10
2023-02-09T07:30:44.454Z,36.92
2023-02-09T07:35:47.589Z,37.30
2023-02-09T07:40:49.395Z,36.82
2023-02-09T07:45:51.073Z,36.84
2023-02-09T07:50:53.638Z,36.58
2023-02-09T07:55:55.531Z,36.46
2023-02-09T08:01:04.618Z,36.94
2023-02-09T08:06:41.322Z,36.58
2023-02-09T08:12:02.040Z,36.15
2023-02-09T08:17:28.517Z,35.99
2023-02-09T08:22:34.008Z,36.12
2023-02-09T08:27:39.412Z,35.75
2023-02-09T08:32:41.496Z,35.93
2023-02-09T08:37:43.482Z,35.34
2023-02-09T08:42:45.790Z,35.22
2023-02-09T08:47:47.688Z,35.65
2023-02-09T08:52:49.553Z,35.42
2023-02-09T08:57:51.478Z,35.37
2023-02-09T09:02:53.384Z,35.36
2023-02-09T09:07:55.262Z,35.21
2023-02-09T09:12:57.809Z,35.10
2023-02-09T09:18:00.061Z,34.91
2023-02-09T09:23:02.394Z,34.74
2023-02-09T09:28:04.568Z,35.17
2023-02-09T09:33:06.771Z,34.78
2023-02-09T09:38:08.682Z,34.47
2023-02-09T09:43:27.667Z,34.62
2023-02-09T09:48:43.144Z,34.75
2023-02-09T09:53:49.005Z,34.76
2023-02-09T09:58:52.116Z,35.08
2023-02-09T10:04:14.487Z,34.71
2023-02-09T10:09:30.114Z,34.95
2023-02-09T10:14:32.108Z,35.03
2023-02-09T10:19:35.311Z,34.87
2023-02-09T10:24:40.418Z,34.80
2023-02-09T10:29:42.449Z,34.90
2023-02-09T10:34:53.211Z,34.89
2023-02-09T10:40:14.277Z,35.06
2023-02-09T10:45:40.966Z,35.12
2023-02-09T10:51:07.462Z,35.16
2023-02-09T10:56:15.699Z,35.01
2023-02-09T11:01:23.634Z,35.00
2023-02-09T11:06:25.968Z,34.63
2023-02-09T11:11:32.976Z,34.86
2023-02-09T11:16:54.618Z,34.74
2023-02-09T11:22:06.886Z,35.06
2023-02-09T11:27:17.546Z,34.72
2023-02-09T11:32:51.075Z,35.14
2023-02-09T11:38:22.267Z,34.97
2023-02-09T11:43:36.243Z,34.77
2023-02-09T11:48:44.821Z,34.69
2023-02-09T11:53:54.173Z,34.87
2023-02-09T11:59:22.056Z,34.78
2023-02-09T12:04:47.662Z,34.97
2023-02-09T12:10:08.363Z,34.85
2023-02-09T12:15:19.615Z,34.99
2023-02-09T12:20:24.847Z,34.78
2023-02-09T12:25:48.691Z,34.74
2023-02-09T12:30:52.258Z,34.63
2023-02-09T12:36:25.826Z,34.66
2023-02-09T12:41:43.116Z,34.90
2023-02-09T12:46:45.163Z,34.68
2023-02-09T12:51:56.349Z,34.68
2023-02-09T12:57:21.153Z,34.49
2023-02-09T13:02:50.197Z,34.77
2023-02-09T13:08:16.032Z,35.13
2023-02-09T13:13:26.082Z,35.43
2023-02-09T13:18:33.554Z,35.00
2023-02-09T13:23:59.489Z,35.06
2023-02-09T13:29:19.811Z,34.85
2023-02-09T13:34:52.950Z,35.04
2023-02-09T13:39:57.951Z,34.96
2023-02-09T13:44:59.873Z,34.83
2023-02-09T13:50:11.447Z,34.98
2023-02-09T13:55:13.396Z,34.98
2023-02-09T14:00:15.613Z,35.12
2023-02-09T14:05:43.513Z,35.10
2023-02-09T14:10:52.832Z,34.91
2023-02-09T14:16:08.348Z,35.00
2023-02-09T14:21:15.997Z,34.98
2023-02-09T14:26:23.088Z,35.25
2023-02-09T14:31:26.468Z,34.90
2023-02-09T14:36:34.118Z,35.18
2023-02-09T14:41:36.880Z,35.13
2023-02-09T14:46:49.890Z,34.86
2023-02-09T14:52:02.219Z,35.38
2023-02-09T14:57:04.675Z,35.14
2023-02-09T15:02:19.674Z,35.04
2023-02-09T15:07:28.724Z,34.88
2023-02-09T15:12:30.747Z,35.31
2023-02-09T15:17:32.904Z,35.64
2023-02-09T15:22:34.753Z,35.76
2023-02-09T15:27:42.409Z,35.39
2023-02-09T15:32:44.888Z,38.73
2023-02-09T15:37:49.868Z,38.09
2023-02-09T15:43:10.399Z,37.13
2023-02-09T15:48:12.573Z,37.54
2023-02-09T15:53:18.985Z,37.70
2023-02-09T15:58:35.356Z,37.96
2023-02-09T16:03:37.644Z,37.32
2023-02-09T16:08:39.618Z,37.11
2023-02-09T16:13:41.605Z,37.04
2023-02-09T16:18:44.209Z,36.57
2023-02-09T16:23:47.813Z,36.18
2023-02-09T16:28:52.103Z,36.12
2023-02-09T16:33:53.953Z,36.05
2023-02-09T16:38:55.814Z,35.67
2023-02-09T16:43:58.186Z,35.91
2023-02-09T16:49:01.739Z,35.65
2023-02-09T16:54:05.215Z,35.80
2023-02-09T16:59:10.198Z,35.68
2023-02-09T17:04:14.028Z,35.68
2023-02-09T17:09:16.499Z,35.88
2023-02-09T17:14:18.345Z,35.64
2023-02-09T17:19:20.302Z,35.71
2023-02-09T17:24:22.503Z,35.92
2023-02-09T17:29:24.427Z,35.95
2023-02-09T17:34:28.562Z,36.04
2023-02-09T17:39:30.969Z,36.10
2023-02-09T17:44:45.597Z,36.18
2023-02-09T17:49:48.534Z,36.30
2023-02-09T17:54:51.111Z,36.10
2023-02-09T17:59:53.362Z,36.28
2023-02-09T18:04:55.186Z,36.04
2023-02-09T18:09:56.989Z,36.01
2023-02-09T18:14:59.604Z,36.04
2023-02-09T18:20:01.624Z,35.98
2023-02-09T18:25:03.771Z,36.26
2023-02-09T18:30:06.464Z,36.22
2023-02-09T18:35:08.473Z,36.59
2023-02-09T18:40:11.148Z,36.56
2023-02-09T18:45:18.914Z,37.27
2023-02-09T18:50:24.442Z,36.96
2023-02-09T18:55:31.206Z,36.96
2023-02-09T19:00:34.117Z,36.78
2023-02-09T19:05:36.039Z,36.55
2023-02-09T19:10:38.064Z,36.54
2023-02-09T19:15:40.589Z,36.68
2023-02-09T19:20:42.465Z,36.54
2023-02-09T19:25:44.948Z,36.31
2023-02-09T19:30:47.138Z,36.25
2023-02-09T19:35:56.965Z,36.59
2023-02-09T19:41:10.432Z,36.38
2023-02-09T19:46:13.370Z,36.51
2023-02-09T19:51:15.657Z,36.37
2023-02-09T19:56:20.863Z,36.20
2023-02-09T20:01:23.179Z,36.08
2023-02-09T20:06:25.404Z,36.42
2023-02-09T20:11:27.864Z,36.14
2023-02-09T20:16:29.937Z,35.98
2023-02-09T20:21:31.971Z,36.20
2023-02-09T20:26:34.251Z,36.01
2023-02-09T20:31:38.156Z,36.43
2023-02-09T20:36:41.627Z,36.35
2023-02-09T20:42:06.759Z,36.22
2023-02-09T20:47:08.780Z,36.01
2023-02-09T20:52:10.890Z,35.83
2023-02-09T20:57:12.832Z,36.18
2023-02-09T21:02:16.291Z,36.04
2023-02-09T21:07:20.314Z,36.15
2023-02-09T21:12:22.654Z,36.10
2023-02-09T21:17:24.666Z,36.22
2023-02-09T21:22:26.757Z,36.21
2023-02-09T21:27:29.124Z,36.00
2023-02-09T21:32:35.059Z,36.06
2023-02-09T21:37:43.128Z,36.01
2023-02-09T21:42:45.197Z,36.21
2023-02-09T21:47:47.053Z,36.08
2023-02-09T21:52:49.993Z,36.36
2023-02-09T21:57:51.959Z,35.95
2023-02-09T22:02:54.606Z,38.12
2023-02-09T22:07:56.342Z,37.38
2023-02-09T22:12:58.071Z,38.00
2023-02-09T22:18:00.225Z,37.84
2023-02-09T22:23:02.324Z,37.58
2023-02-09T22:28:05.790Z,37.23
2023-02-09T22:33:07.677Z,37.61
2023-02-09T22:38:09.556Z,37.38
2023-02-09T22:43:11.457Z,37.29
2023-02-09T22:48:13.471Z,37.02
2023-02-09T22:53:15.427Z,36.99
2023-02-09T22:58:17.379Z,37.06
2023-02-09T23:03:19.570Z,36.92
2023-02-09T23:08:23.091Z,36.99
2023-02-09T23:13:25.160Z,36.61
2023-02-09T23:18:27.061Z,36.67
2023-02-09T23:23:29.583Z,36.47
2023-02-09T23:28:31.765Z,36.80
2023-02-09T23:33:35.753Z,36.41
2023-02-09T23:38:37.991Z,36.31
2023-02-09T23:43:40.597Z,36.23
2023-02-09T23:48:44.753Z,36.74
2023-02-09T23:53:47.949Z,36.21
2023-02-09T23:58:51.742Z,36.44
